sensor_id;sensor_type;location;lat;lon;timestamp;temperature;humidity
20845;DHT22;10583;49.084;8.646;2022-12-05T00:00:14;3.40;99.90
20845;DHT22;10583;49.084;8.646;2022-12-05T00:02:40;3.50;99.90
20845;DHT22;10583;49.084;8.646;2022-12-05T00:05:09;3.40;99.90
20845;DHT22;10583;49.084;8.646;2022-12-05T00:07:36;3.40;99.90
20845;DHT22;10583;49.084;8.646;2022-12-05T00:10:05;3.50;99.90
20845;DHT22;10583;49.084;8.646;2022-12-05T00:12:32;3.50;99.90
20845;DHT22;10583;49.084;8.646;2022-12-05T00:14:58;3.50;99.90
20845;DHT22;10583;49.084;8.646;2022-12-05T00:17:25;3.40;99.90
20845;DHT22;10583;49.084;8.646;2022-12-05T00:19:52;3.50;99.90
20845;DHT22;10583;49.084;8.646;2022-12-05T00:22:20;3.50;99.90
20845;DHT22;10583;49.084;8.646;2022-12-05T00:24:47;3.40;99.90
20845;DHT22;10583;49.084;8.646;2022-12-05T00:27:13;3.50;99.90
20845;DHT22;10583;49.084;8.646;2022-12-05T00:29:40;3.50;99.90
20845;DHT22;10583;49.084;8.646;2022-12-05T00:32:07;3.60;99.90
20845;DHT22;10583;49.084;8.646;2022-12-05T00:34:33;3.50;99.90
20845;DHT22;10583;49.084;8.646;2022-12-05T00:37:00;3.50;99.90
20845;DHT22;10583;49.084;8.646;2022-12-05T00:39:28;3.50;99.90
20845;DHT22;10583;49.084;8.646;2022-12-05T00:41:55;3.50;99.90
20845;DHT22;10583;49.084;8.646;2022-12-05T00:44:21;3.50;99.90
20845;DHT22;10583;49.084;8.646;2022-12-05T00:46:48;3.50;99.90
20845;DHT22;10583;49.084;8.646;2022-12-05T00:49:15;3.50;99.90
20845;DHT22;10583;49.084;8.646;2022-12-05T00:51:42;3.50;99.90
20845;DHT22;10583;49.084;8.646;2022-12-05T00:54:11;3.50;99.90
20845;DHT22;10583;49.084;8.646;2022-12-05T00:56:40;3.50;99.90
20845;DHT22;10583;49.084;8.646;2022-12-05T00:59:07;3.50;99.90
20845;DHT22;10583;49.084;8.646;2022-12-05T01:01:36;3.60;99.90
20845;DHT22;10583;49.084;8.646;2022-12-05T01:04:05;3.60;99.90
20845;DHT22;10583;49.084;8.646;2022-12-05T01:06:32;3.60;99.90
20845;DHT22;10583;49.084;8.646;2022-12-05T01:08:59;3.60;99.90
20845;DHT22;10583;49.084;8.646;2022-12-05T01:11:26;3.60;99.90
20845;DHT22;10583;49.084;8.646;2022-12-05T01:13:55;3.60;99.90
20845;DHT22;10583;49.084;8.646;2022-12-05T01:16:24;3.50;99.90
20845;DHT22;10583;49.084;8.646;2022-12-05T01:18:51;3.50;99.90
20845;DHT22;10583;49.084;8.646;2022-12-05T01:21:19;3.60;99.90
20845;DHT22;10583;49.084;8.646;2022-12-05T01:23:45;3.60;99.90
20845;DHT22;10583;49.084;8.646;2022-12-05T01:26:14;3.60;99.90
20845;DHT22;10583;49.084;8.646;2022-12-05T01:28:41;3.60;99.90
20845;DHT22;10583;49.084;8.646;2022-12-05T01:31:15;3.50;99.90
20845;DHT22;10583;49.084;8.646;2022-12-05T01:33:43;3.50;99.90
20845;DHT22;10583;49.084;8.646;2022-12-05T01:36:11;3.50;99.90
20845;DHT22;10583;49.084;8.646;2022-12-05T01:38:38;3.50;99.90
20845;DHT22;10583;49.084;8.646;2022-12-05T01:41:07;3.50;99.90
20845;DHT22;10583;49.084;8.646;2022-12-05T01:43:52;3.40;99.90
20845;DHT22;10583;49.084;8.646;2022-12-05T01:46:20;3.40;99.90
20845;DHT22;10583;49.084;8.646;2022-12-05T01:48:47;3.40;99.90
20845;DHT22;10583;49.084;8.646;2022-12-05T01:51:15;3.50;99.90
20845;DHT22;10583;49.084;8.646;2022-12-05T01:53:41;3.50;99.90
20845;DHT22;10583;49.084;8.646;2022-12-05T01:56:08;3.50;99.90
20845;DHT22;10583;49.084;8.646;2022-12-05T01:58:37;3.50;99.90
20845;DHT22;10583;49.084;8.646;2022-12-05T02:01:05;3.50;99.90
20845;DHT22;10583;49.084;8.646;2022-12-05T02:03:34;3.60;99.90
20845;DHT22;10583;49.084;8.646;2022-12-05T02:06:03;3.60;99.90
20845;DHT22;10583;49.084;8.646;2022-12-05T02:08:30;3.50;99.90
20845;DHT22;10583;49.084;8.646;2022-12-05T02:10:57;3.50;99.90
20845;DHT22;10583;49.084;8.646;2022-12-05T02:13:42;3.60;99.90
20845;DHT22;10583;49.084;8.646;2022-12-05T02:16:19;3.60;99.90
20845;DHT22;10583;49.084;8.646;2022-12-05T02:19:01;3.50;99.90
20845;DHT22;10583;49.084;8.646;2022-12-05T02:22:01;3.50;99.90
20845;DHT22;10583;49.084;8.646;2022-12-05T02:24:52;3.60;99.90
20845;DHT22;10583;49.084;8.646;2022-12-05T02:27:35;3.50;99.90
20845;DHT22;10583;49.084;8.646;2022-12-05T02:30:08;3.50;99.90
20845;DHT22;10583;49.084;8.646;2022-12-05T02:32:54;3.50;99.90
20845;DHT22;10583;49.084;8.646;2022-12-05T02:35:41;3.50;99.90
20845;DHT22;10583;49.084;8.646;2022-12-05T02:38:18;3.50;99.90
20845;DHT22;10583;49.084;8.646;2022-12-05T02:40:54;3.50;99.90
20845;DHT22;10583;49.084;8.646;2022-12-05T02:43:29;3.40;99.90
20845;DHT22;10583;49.084;8.646;2022-12-05T02:46:03;3.50;99.90
20845;DHT22;10583;49.084;8.646;2022-12-05T02:48:31;3.50;99.90
20845;DHT22;10583;49.084;8.646;2022-12-05T02:51:01;3.50;99.90
20845;DHT22;10583;49.084;8.646;2022-12-05T02:53:30;3.50;99.90
20845;DHT22;10583;49.084;8.646;2022-12-05T02:55:58;3.50;99.90
20845;DHT22;10583;49.084;8.646;2022-12-05T02:58:30;3.50;99.90
20845;DHT22;10583;49.084;8.646;2022-12-05T03:00:59;3.50;99.90
20845;DHT22;10583;49.084;8.646;2022-12-05T03:03:25;3.50;99.90
20845;DHT22;10583;49.084;8.646;2022-12-05T03:05:58;3.50;99.90
20845;DHT22;10583;49.084;8.646;2022-12-05T03:08:29;3.50;99.90
20845;DHT22;10583;49.084;8.646;2022-12-05T03:10:57;3.50;99.90
20845;DHT22;10583;49.084;8.646;2022-12-05T03:13:27;3.50;99.90
20845;DHT22;10583;49.084;8.646;2022-12-05T03:15:58;3.50;99.90
20845;DHT22;10583;49.084;8.646;2022-12-05T03:18:28;3.50;99.90
20845;DHT22;10583;49.084;8.646;2022-12-05T03:20:59;3.50;99.90
20845;DHT22;10583;49.084;8.646;2022-12-05T03:23:30;3.50;99.90
20845;DHT22;10583;49.084;8.646;2022-12-05T03:26:03;3.50;99.90
20845;DHT22;10583;49.084;8.646;2022-12-05T03:28:44;3.50;99.90
20845;DHT22;10583;49.084;8.646;2022-12-05T03:31:18;3.50;99.90
20845;DHT22;10583;49.084;8.646;2022-12-05T03:33:57;3.50;99.90
20845;DHT22;10583;49.084;8.646;2022-12-05T03:36:30;3.50;99.90
20845;DHT22;10583;49.084;8.646;2022-12-05T03:39:04;3.50;99.90
20845;DHT22;10583;49.084;8.646;2022-12-05T03:41:38;3.50;99.90
20845;DHT22;10583;49.084;8.646;2022-12-05T03:44:09;3.50;99.90
20845;DHT22;10583;49.084;8.646;2022-12-05T03:46:40;3.50;99.90
20845;DHT22;10583;49.084;8.646;2022-12-05T03:49:14;3.60;99.90
20845;DHT22;10583;49.084;8.646;2022-12-05T03:51:51;3.60;99.90
20845;DHT22;10583;49.084;8.646;2022-12-05T03:54:21;3.60;99.90
20845;DHT22;10583;49.084;8.646;2022-12-05T03:56:53;3.70;99.90
20845;DHT22;10583;49.084;8.646;2022-12-05T03:59:27;3.60;99.90
20845;DHT22;10583;49.084;8.646;2022-12-05T04:01:58;3.60;99.90
20845;DHT22;10583;49.084;8.646;2022-12-05T04:04:32;3.70;99.90
20845;DHT22;10583;49.084;8.646;2022-12-05T04:07:02;3.60;99.90
20845;DHT22;10583;49.084;8.646;2022-12-05T04:09:34;3.70;99.90
20845;DHT22;10583;49.084;8.646;2022-12-05T04:12:07;3.60;99.90
20845;DHT22;10583;49.084;8.646;2022-12-05T04:14:39;3.60;99.90
20845;DHT22;10583;49.084;8.646;2022-12-05T04:17:09;3.70;99.90
20845;DHT22;10583;49.084;8.646;2022-12-05T04:19:42;3.70;99.90
20845;DHT22;10583;49.084;8.646;2022-12-05T04:22:28;3.70;99.90
20845;DHT22;10583;49.084;8.646;2022-12-05T04:24:57;3.70;99.90
20845;DHT22;10583;49.084;8.646;2022-12-05T04:27:49;3.60;99.90
20845;DHT22;10583;49.084;8.646;2022-12-05T04:30:18;3.70;99.90
20845;DHT22;10583;49.084;8.646;2022-12-05T04:32:51;3.70;99.90
20845;DHT22;10583;49.084;8.646;2022-12-05T04:35:24;3.70;99.90
20845;DHT22;10583;49.084;8.646;2022-12-05T04:37:55;3.70;99.90
20845;DHT22;10583;49.084;8.646;2022-12-05T04:40:26;3.70;99.90
20845;DHT22;10583;49.084;8.646;2022-12-05T04:42:55;3.70;99.90
20845;DHT22;10583;49.084;8.646;2022-12-05T04:45:24;3.70;99.90
20845;DHT22;10583;49.084;8.646;2022-12-05T04:47:54;3.70;99.90
20845;DHT22;10583;49.084;8.646;2022-12-05T04:50:26;3.70;99.90
20845;DHT22;10583;49.084;8.646;2022-12-05T04:52:55;3.70;99.90
20845;DHT22;10583;49.084;8.646;2022-12-05T04:55:24;3.70;99.90
20845;DHT22;10583;49.084;8.646;2022-12-05T04:57:58;3.60;99.90
20845;DHT22;10583;49.084;8.646;2022-12-05T05:00:28;3.60;99.90
20845;DHT22;10583;49.084;8.646;2022-12-05T05:02:59;3.70;99.90
20845;DHT22;10583;49.084;8.646;2022-12-05T05:05:31;3.70;99.90
20845;DHT22;10583;49.084;8.646;2022-12-05T05:08:00;3.70;99.90
20845;DHT22;10583;49.084;8.646;2022-12-05T05:10:32;3.60;99.90
20845;DHT22;10583;49.084;8.646;2022-12-05T05:13:01;3.60;99.90
20845;DHT22;10583;49.084;8.646;2022-12-05T05:15:27;3.50;99.90
20845;DHT22;10583;49.084;8.646;2022-12-05T05:17:54;3.60;99.90
20845;DHT22;10583;49.084;8.646;2022-12-05T05:20:21;3.60;99.90
20845;DHT22;10583;49.084;8.646;2022-12-05T05:22:54;3.70;99.90
20845;DHT22;10583;49.084;8.646;2022-12-05T05:25:22;3.70;99.90
20845;DHT22;10583;49.084;8.646;2022-12-05T05:27:49;3.70;99.90
20845;DHT22;10583;49.084;8.646;2022-12-05T05:30:17;3.70;99.90
20845;DHT22;10583;49.084;8.646;2022-12-05T05:32:44;3.70;99.90
20845;DHT22;10583;49.084;8.646;2022-12-05T05:35:11;3.70;99.90
20845;DHT22;10583;49.084;8.646;2022-12-05T05:37:38;3.70;99.90
20845;DHT22;10583;49.084;8.646;2022-12-05T05:40:07;3.70;99.90
20845;DHT22;10583;49.084;8.646;2022-12-05T05:42:34;3.70;99.90
20845;DHT22;10583;49.084;8.646;2022-12-05T05:45:01;3.60;99.90
20845;DHT22;10583;49.084;8.646;2022-12-05T05:47:28;3.60;99.90
20845;DHT22;10583;49.084;8.646;2022-12-05T05:49:55;3.60;99.90
20845;DHT22;10583;49.084;8.646;2022-12-05T05:52:22;3.60;99.90
20845;DHT22;10583;49.084;8.646;2022-12-05T05:54:48;3.60;99.90
20845;DHT22;10583;49.084;8.646;2022-12-05T05:57:16;3.60;99.90
20845;DHT22;10583;49.084;8.646;2022-12-05T05:59:43;3.60;99.90
20845;DHT22;10583;49.084;8.646;2022-12-05T06:02:11;3.70;99.90
20845;DHT22;10583;49.084;8.646;2022-12-05T06:04:37;3.70;99.90
20845;DHT22;10583;49.084;8.646;2022-12-05T06:07:04;3.70;99.90
20845;DHT22;10583;49.084;8.646;2022-12-05T06:09:31;3.70;99.90
20845;DHT22;10583;49.084;8.646;2022-12-05T06:11:57;3.70;99.90
20845;DHT22;10583;49.084;8.646;2022-12-05T06:14:25;3.70;99.90
20845;DHT22;10583;49.084;8.646;2022-12-05T06:16:52;3.70;99.90
20845;DHT22;10583;49.084;8.646;2022-12-05T06:19:19;3.70;99.90
20845;DHT22;10583;49.084;8.646;2022-12-05T06:21:47;3.70;99.90
20845;DHT22;10583;49.084;8.646;2022-12-05T06:24:14;3.70;99.90
20845;DHT22;10583;49.084;8.646;2022-12-05T06:26:41;3.60;99.90
20845;DHT22;10583;49.084;8.646;2022-12-05T06:29:08;3.70;99.90
20845;DHT22;10583;49.084;8.646;2022-12-05T06:31:36;3.70;99.90
20845;DHT22;10583;49.084;8.646;2022-12-05T06:34:03;3.70;99.90
20845;DHT22;10583;49.084;8.646;2022-12-05T06:36:30;3.70;99.90
20845;DHT22;10583;49.084;8.646;2022-12-05T06:38:57;3.70;99.90
20845;DHT22;10583;49.084;8.646;2022-12-05T06:41:25;3.70;99.90
20845;DHT22;10583;49.084;8.646;2022-12-05T06:43:53;3.70;99.90
20845;DHT22;10583;49.084;8.646;2022-12-05T06:46:20;3.80;99.90
20845;DHT22;10583;49.084;8.646;2022-12-05T06:48:51;3.70;99.90
20845;DHT22;10583;49.084;8.646;2022-12-05T06:51:18;3.70;99.90
20845;DHT22;10583;49.084;8.646;2022-12-05T06:53:45;3.80;99.90
20845;DHT22;10583;49.084;8.646;2022-12-05T06:56:13;3.80;99.90
20845;DHT22;10583;49.084;8.646;2022-12-05T06:58:41;3.70;99.90
20845;DHT22;10583;49.084;8.646;2022-12-05T07:01:10;3.80;99.90
20845;DHT22;10583;49.084;8.646;2022-12-05T07:03:56;3.80;99.90
20845;DHT22;10583;49.084;8.646;2022-12-05T07:06:23;3.80;99.90
20845;DHT22;10583;49.084;8.646;2022-12-05T07:08:50;3.80;99.90
20845;DHT22;10583;49.084;8.646;2022-12-05T07:11:17;3.80;99.90
20845;DHT22;10583;49.084;8.646;2022-12-05T07:13:44;3.80;99.90
20845;DHT22;10583;49.084;8.646;2022-12-05T07:16:11;3.80;99.90
20845;DHT22;10583;49.084;8.646;2022-12-05T07:18:37;3.80;99.90
20845;DHT22;10583;49.084;8.646;2022-12-05T07:21:07;3.80;99.90
20845;DHT22;10583;49.084;8.646;2022-12-05T07:23:34;3.80;99.90
20845;DHT22;10583;49.084;8.646;2022-12-05T07:26:04;3.80;99.90
20845;DHT22;10583;49.084;8.646;2022-12-05T07:28:31;3.80;99.90
20845;DHT22;10583;49.084;8.646;2022-12-05T07:30:59;3.70;99.90
20845;DHT22;10583;49.084;8.646;2022-12-05T07:33:26;3.70;99.90
20845;DHT22;10583;49.084;8.646;2022-12-05T07:35:58;3.70;99.90
20845;DHT22;10583;49.084;8.646;2022-12-05T07:38:26;3.70;99.90
20845;DHT22;10583;49.084;8.646;2022-12-05T07:40:53;3.80;99.90
20845;DHT22;10583;49.084;8.646;2022-12-05T07:43:20;3.80;99.90
20845;DHT22;10583;49.084;8.646;2022-12-05T07:45:46;3.90;99.90
20845;DHT22;10583;49.084;8.646;2022-12-05T07:48:13;3.90;99.90
20845;DHT22;10583;49.084;8.646;2022-12-05T07:50:40;3.90;99.90
20845;DHT22;10583;49.084;8.646;2022-12-05T07:53:07;3.90;99.90
20845;DHT22;10583;49.084;8.646;2022-12-05T07:55:36;3.90;99.90
20845;DHT22;10583;49.084;8.646;2022-12-05T07:58:03;3.90;99.90
20845;DHT22;10583;49.084;8.646;2022-12-05T08:00:30;3.90;99.90
20845;DHT22;10583;49.084;8.646;2022-12-05T08:02:56;3.90;99.90
20845;DHT22;10583;49.084;8.646;2022-12-05T08:05:23;3.90;99.90
20845;DHT22;10583;49.084;8.646;2022-12-05T08:07:50;3.90;99.90
20845;DHT22;10583;49.084;8.646;2022-12-05T08:10:17;3.90;99.90
20845;DHT22;10583;49.084;8.646;2022-12-05T08:12:45;4.00;99.90
20845;DHT22;10583;49.084;8.646;2022-12-05T08:15:11;4.00;99.90
20845;DHT22;10583;49.084;8.646;2022-12-05T08:17:38;4.10;99.90
20845;DHT22;10583;49.084;8.646;2022-12-05T08:20:06;4.00;99.90
20845;DHT22;10583;49.084;8.646;2022-12-05T08:22:33;4.00;99.90
20845;DHT22;10583;49.084;8.646;2022-12-05T08:24:59;4.10;99.90
20845;DHT22;10583;49.084;8.646;2022-12-05T08:27:26;4.10;99.90
20845;DHT22;10583;49.084;8.646;2022-12-05T08:29:54;4.10;99.90
20845;DHT22;10583;49.084;8.646;2022-12-05T08:32:21;4.10;99.90
20845;DHT22;10583;49.084;8.646;2022-12-05T08:34:48;4.00;99.90
20845;DHT22;10583;49.084;8.646;2022-12-05T08:37:14;4.10;99.90
20845;DHT22;10583;49.084;8.646;2022-12-05T08:39:41;4.10;99.90
20845;DHT22;10583;49.084;8.646;2022-12-05T08:42:08;4.10;99.90
20845;DHT22;10583;49.084;8.646;2022-12-05T08:44:34;4.10;99.90
20845;DHT22;10583;49.084;8.646;2022-12-05T08:47:02;4.10;99.90
20845;DHT22;10583;49.084;8.646;2022-12-05T08:49:29;4.20;99.90
20845;DHT22;10583;49.084;8.646;2022-12-05T08:51:56;4.20;99.90
20845;DHT22;10583;49.084;8.646;2022-12-05T08:54:23;4.20;99.90
20845;DHT22;10583;49.084;8.646;2022-12-05T08:56:50;4.20;99.90
20845;DHT22;10583;49.084;8.646;2022-12-05T08:59:17;4.30;99.90
20845;DHT22;10583;49.084;8.646;2022-12-05T09:01:44;4.30;99.90
20845;DHT22;10583;49.084;8.646;2022-12-05T09:04:12;4.20;99.90
20845;DHT22;10583;49.084;8.646;2022-12-05T09:06:39;4.30;99.90
20845;DHT22;10583;49.084;8.646;2022-12-05T09:09:08;4.30;99.90
20845;DHT22;10583;49.084;8.646;2022-12-05T09:11:38;4.40;99.90
20845;DHT22;10583;49.084;8.646;2022-12-05T09:14:08;4.40;99.90
20845;DHT22;10583;49.084;8.646;2022-12-05T09:16:36;4.50;99.90
20845;DHT22;10583;49.084;8.646;2022-12-05T09:19:03;4.50;99.90
20845;DHT22;10583;49.084;8.646;2022-12-05T09:21:31;4.50;99.90
20845;DHT22;10583;49.084;8.646;2022-12-05T09:23:59;4.40;99.90
20845;DHT22;10583;49.084;8.646;2022-12-05T09:26:27;4.40;99.90
20845;DHT22;10583;49.084;8.646;2022-12-05T09:28:55;4.40;99.90
20845;DHT22;10583;49.084;8.646;2022-12-05T09:31:23;4.40;99.90
20845;DHT22;10583;49.084;8.646;2022-12-05T09:33:51;4.40;99.90
20845;DHT22;10583;49.084;8.646;2022-12-05T09:36:20;4.50;99.90
20845;DHT22;10583;49.084;8.646;2022-12-05T09:38:49;4.50;99.90
20845;DHT22;10583;49.084;8.646;2022-12-05T09:41:29;4.50;99.90
20845;DHT22;10583;49.084;8.646;2022-12-05T09:44:21;4.50;99.90
20845;DHT22;10583;49.084;8.646;2022-12-05T09:46:52;4.50;99.90
20845;DHT22;10583;49.084;8.646;2022-12-05T09:49:21;4.50;99.90
20845;DHT22;10583;49.084;8.646;2022-12-05T09:51:50;4.50;99.90
20845;DHT22;10583;49.084;8.646;2022-12-05T09:54:19;4.60;99.90
20845;DHT22;10583;49.084;8.646;2022-12-05T09:56:48;4.60;99.90
20845;DHT22;10583;49.084;8.646;2022-12-05T09:59:16;4.60;99.90
20845;DHT22;10583;49.084;8.646;2022-12-05T10:01:52;4.60;99.90
20845;DHT22;10583;49.084;8.646;2022-12-05T10:04:32;4.60;99.90
20845;DHT22;10583;49.084;8.646;2022-12-05T10:07:11;4.50;99.90
20845;DHT22;10583;49.084;8.646;2022-12-05T10:09:52;4.60;99.90
20845;DHT22;10583;49.084;8.646;2022-12-05T10:12:39;4.60;99.90
20845;DHT22;10583;49.084;8.646;2022-12-05T10:15:13;4.60;99.90
20845;DHT22;10583;49.084;8.646;2022-12-05T10:17:43;4.50;99.90
20845;DHT22;10583;49.084;8.646;2022-12-05T10:20:16;4.50;99.90
20845;DHT22;10583;49.084;8.646;2022-12-05T10:22:46;4.50;99.90
20845;DHT22;10583;49.084;8.646;2022-12-05T10:25:18;4.60;99.90
20845;DHT22;10583;49.084;8.646;2022-12-05T10:27:49;4.60;99.90
20845;DHT22;10583;49.084;8.646;2022-12-05T10:30:18;4.60;99.90
20845;DHT22;10583;49.084;8.646;2022-12-05T10:32:51;4.60;99.90
20845;DHT22;10583;49.084;8.646;2022-12-05T10:35:21;4.60;99.90
20845;DHT22;10583;49.084;8.646;2022-12-05T10:37:50;4.70;99.90
20845;DHT22;10583;49.084;8.646;2022-12-05T10:40:19;4.70;99.90
20845;DHT22;10583;49.084;8.646;2022-12-05T10:42:47;4.70;99.90
20845;DHT22;10583;49.084;8.646;2022-12-05T10:45:17;4.70;99.90
20845;DHT22;10583;49.084;8.646;2022-12-05T10:47:45;4.70;99.90
20845;DHT22;10583;49.084;8.646;2022-12-05T10:50:23;4.70;99.90
20845;DHT22;10583;49.084;8.646;2022-12-05T10:52:51;4.70;99.90
20845;DHT22;10583;49.084;8.646;2022-12-05T10:55:20;4.70;99.90
20845;DHT22;10583;49.084;8.646;2022-12-05T10:57:50;4.70;99.90
20845;DHT22;10583;49.084;8.646;2022-12-05T11:00:21;4.70;99.90
20845;DHT22;10583;49.084;8.646;2022-12-05T11:02:49;4.70;99.90
20845;DHT22;10583;49.084;8.646;2022-12-05T11:05:26;4.70;99.90
20845;DHT22;10583;49.084;8.646;2022-12-05T11:07:54;4.70;99.90
20845;DHT22;10583;49.084;8.646;2022-12-05T11:10:25;4.80;99.90
20845;DHT22;10583;49.084;8.646;2022-12-05T11:12:54;4.80;99.90
20845;DHT22;10583;49.084;8.646;2022-12-05T11:15:24;4.80;99.90
20845;DHT22;10583;49.084;8.646;2022-12-05T11:17:52;4.90;99.90
20845;DHT22;10583;49.084;8.646;2022-12-05T11:20:39;5.00;99.90
20845;DHT22;10583;49.084;8.646;2022-12-05T11:23:22;5.00;99.90
20845;DHT22;10583;49.084;8.646;2022-12-05T11:25:50;5.00;99.90
20845;DHT22;10583;49.084;8.646;2022-12-05T11:28:34;5.00;99.90
20845;DHT22;10583;49.084;8.646;2022-12-05T11:31:04;5.00;99.90
20845;DHT22;10583;49.084;8.646;2022-12-05T11:33:33;5.00;99.90
20845;DHT22;10583;49.084;8.646;2022-12-05T11:36:05;5.00;99.90
20845;DHT22;10583;49.084;8.646;2022-12-05T11:38:38;5.10;99.90
20845;DHT22;10583;49.084;8.646;2022-12-05T11:41:37;5.10;99.90
20845;DHT22;10583;49.084;8.646;2022-12-05T11:44:30;5.20;99.90
20845;DHT22;10583;49.084;8.646;2022-12-05T11:47:11;5.30;99.90
20845;DHT22;10583;49.084;8.646;2022-12-05T11:49:56;5.40;99.90
20845;DHT22;10583;49.084;8.646;2022-12-05T11:52:33;5.40;99.90
20845;DHT22;10583;49.084;8.646;2022-12-05T11:55:13;5.60;99.90
20845;DHT22;10583;49.084;8.646;2022-12-05T11:57:56;5.80;99.90
20845;DHT22;10583;49.084;8.646;2022-12-05T12:00:31;6.00;99.90
20845;DHT22;10583;49.084;8.646;2022-12-05T12:03:28;6.30;99.90
20845;DHT22;10583;49.084;8.646;2022-12-05T12:06:07;6.50;99.90
20845;DHT22;10583;49.084;8.646;2022-12-05T12:08:47;6.70;99.90
20845;DHT22;10583;49.084;8.646;2022-12-05T12:11:21;6.70;99.90
20845;DHT22;10583;49.084;8.646;2022-12-05T12:14:00;6.70;99.90
20845;DHT22;10583;49.084;8.646;2022-12-05T12:16:34;6.70;99.90
20845;DHT22;10583;49.084;8.646;2022-12-05T12:19:14;6.70;99.90
20845;DHT22;10583;49.084;8.646;2022-12-05T12:21:55;6.60;99.90
20845;DHT22;10583;49.084;8.646;2022-12-05T12:24:36;6.60;99.90
20845;DHT22;10583;49.084;8.646;2022-12-05T12:27:14;6.40;99.90
20845;DHT22;10583;49.084;8.646;2022-12-05T12:29:54;6.30;99.90
20845;DHT22;10583;49.084;8.646;2022-12-05T12:32:29;6.30;99.90
20845;DHT22;10583;49.084;8.646;2022-12-05T12:38:23;6.20;99.90
20845;DHT22;10583;49.084;8.646;2022-12-05T12:40:56;6.10;99.90
20845;DHT22;10583;49.084;8.646;2022-12-05T12:43:42;6.00;99.90
20845;DHT22;10583;49.084;8.646;2022-12-05T12:46:19;6.00;99.90
20845;DHT22;10583;49.084;8.646;2022-12-05T12:48:58;5.90;99.90
20845;DHT22;10583;49.084;8.646;2022-12-05T12:51:29;5.90;99.90
20845;DHT22;10583;49.084;8.646;2022-12-05T12:54:13;5.90;99.90
20845;DHT22;10583;49.084;8.646;2022-12-05T12:56:52;5.90;99.90
20845;DHT22;10583;49.084;8.646;2022-12-05T12:59:36;6.00;99.90
20845;DHT22;10583;49.084;8.646;2022-12-05T13:02:13;6.00;99.90
20845;DHT22;10583;49.084;8.646;2022-12-05T13:04:47;6.10;99.90
20845;DHT22;10583;49.084;8.646;2022-12-05T13:07:17;6.10;99.90
20845;DHT22;10583;49.084;8.646;2022-12-05T13:09:49;6.00;99.90
20845;DHT22;10583;49.084;8.646;2022-12-05T13:12:23;6.00;99.90
20845;DHT22;10583;49.084;8.646;2022-12-05T13:14:53;6.00;99.90
20845;DHT22;10583;49.084;8.646;2022-12-05T13:17:23;6.00;99.90
20845;DHT22;10583;49.084;8.646;2022-12-05T13:19:51;6.00;99.90
20845;DHT22;10583;49.084;8.646;2022-12-05T13:22:22;6.00;99.90
20845;DHT22;10583;49.084;8.646;2022-12-05T13:24:49;6.00;99.90
20845;DHT22;10583;49.084;8.646;2022-12-05T13:27:18;6.00;99.90
20845;DHT22;10583;49.084;8.646;2022-12-05T13:29:49;6.00;99.90
20845;DHT22;10583;49.084;8.646;2022-12-05T13:32:28;6.00;99.90
20845;DHT22;10583;49.084;8.646;2022-12-05T13:34:55;6.00;99.90
20845;DHT22;10583;49.084;8.646;2022-12-05T13:37:24;6.00;99.90
20845;DHT22;10583;49.084;8.646;2022-12-05T13:40:25;5.90;99.90
20845;DHT22;10583;49.084;8.646;2022-12-05T13:43:12;5.90;99.90
20845;DHT22;10583;49.084;8.646;2022-12-05T13:45:40;5.90;99.90
20845;DHT22;10583;49.084;8.646;2022-12-05T13:48:17;5.90;99.90
20845;DHT22;10583;49.084;8.646;2022-12-05T13:50:50;5.90;99.90
20845;DHT22;10583;49.084;8.646;2022-12-05T13:53:31;5.90;99.90
20845;DHT22;10583;49.084;8.646;2022-12-05T13:56:04;5.90;99.90
20845;DHT22;10583;49.084;8.646;2022-12-05T13:58:43;5.90;99.90
20845;DHT22;10583;49.084;8.646;2022-12-05T14:01:40;5.90;99.90
20845;DHT22;10583;49.084;8.646;2022-12-05T14:07:10;5.80;99.90
20845;DHT22;10583;49.084;8.646;2022-12-05T14:09:51;5.80;99.90
20845;DHT22;10583;49.084;8.646;2022-12-05T14:12:47;5.80;99.90
20845;DHT22;10583;49.084;8.646;2022-12-05T14:15:33;5.80;99.90
20845;DHT22;10583;49.084;8.646;2022-12-05T14:18:09;5.80;99.90
20845;DHT22;10583;49.084;8.646;2022-12-05T14:20:48;5.80;99.90
20845;DHT22;10583;49.084;8.646;2022-12-05T14:23:34;5.80;99.90
20845;DHT22;10583;49.084;8.646;2022-12-05T14:26:15;5.80;99.90
20845;DHT22;10583;49.084;8.646;2022-12-05T14:28:55;5.80;99.90
20845;DHT22;10583;49.084;8.646;2022-12-05T14:31:39;5.80;99.90
20845;DHT22;10583;49.084;8.646;2022-12-05T14:34:19;5.80;99.90
20845;DHT22;10583;49.084;8.646;2022-12-05T14:36:58;5.80;99.90
20845;DHT22;10583;49.084;8.646;2022-12-05T14:39:40;5.80;99.90
20845;DHT22;10583;49.084;8.646;2022-12-05T14:42:25;5.80;99.90
20845;DHT22;10583;49.084;8.646;2022-12-05T14:44:54;5.70;99.90
20845;DHT22;10583;49.084;8.646;2022-12-05T14:47:23;5.70;99.90
20845;DHT22;10583;49.084;8.646;2022-12-05T14:49:54;5.70;99.90
20845;DHT22;10583;49.084;8.646;2022-12-05T14:52:25;5.70;99.90
20845;DHT22;10583;49.084;8.646;2022-12-05T14:54:55;5.70;99.90
20845;DHT22;10583;49.084;8.646;2022-12-05T14:57:24;5.70;99.90
20845;DHT22;10583;49.084;8.646;2022-12-05T14:59:53;5.70;99.90
20845;DHT22;10583;49.084;8.646;2022-12-05T15:02:23;5.70;99.90
20845;DHT22;10583;49.084;8.646;2022-12-05T15:04:55;5.70;99.90
20845;DHT22;10583;49.084;8.646;2022-12-05T15:07:30;5.70;99.90
20845;DHT22;10583;49.084;8.646;2022-12-05T15:09:59;5.60;99.90
20845;DHT22;10583;49.084;8.646;2022-12-05T15:12:32;5.60;99.90
20845;DHT22;10583;49.084;8.646;2022-12-05T15:15:09;5.60;99.90
20845;DHT22;10583;49.084;8.646;2022-12-05T15:17:43;5.60;99.90
20845;DHT22;10583;49.084;8.646;2022-12-05T15:20:15;5.60;99.90
20845;DHT22;10583;49.084;8.646;2022-12-05T15:22:44;5.60;99.90
20845;DHT22;10583;49.084;8.646;2022-12-05T15:25:21;5.60;99.90
20845;DHT22;10583;49.084;8.646;2022-12-05T15:27:54;5.60;99.90
20845;DHT22;10583;49.084;8.646;2022-12-05T15:30:20;5.50;99.90
20845;DHT22;10583;49.084;8.646;2022-12-05T15:32:47;5.50;99.90
20845;DHT22;10583;49.084;8.646;2022-12-05T15:35:15;5.50;99.90
20845;DHT22;10583;49.084;8.646;2022-12-05T15:37:48;5.40;99.90
20845;DHT22;10583;49.084;8.646;2022-12-05T15:40:17;5.40;99.90
20845;DHT22;10583;49.084;8.646;2022-12-05T15:42:48;5.40;99.90
20845;DHT22;10583;49.084;8.646;2022-12-05T15:45:18;5.40;99.90
20845;DHT22;10583;49.084;8.646;2022-12-05T15:47:49;5.40;99.90
20845;DHT22;10583;49.084;8.646;2022-12-05T15:50:25;5.30;99.90
20845;DHT22;10583;49.084;8.646;2022-12-05T15:53:01;5.40;99.90
20845;DHT22;10583;49.084;8.646;2022-12-05T15:55:32;5.30;99.90
20845;DHT22;10583;49.084;8.646;2022-12-05T15:58:05;5.30;99.90
20845;DHT22;10583;49.084;8.646;2022-12-05T16:00:36;5.30;99.90
20845;DHT22;10583;49.084;8.646;2022-12-05T16:03:11;5.30;99.90
20845;DHT22;10583;49.084;8.646;2022-12-05T16:05:45;5.30;99.90
20845;DHT22;10583;49.084;8.646;2022-12-05T16:08:14;5.30;99.90
20845;DHT22;10583;49.084;8.646;2022-12-05T16:10:41;5.30;99.90
20845;DHT22;10583;49.084;8.646;2022-12-05T16:13:12;5.20;99.90
20845;DHT22;10583;49.084;8.646;2022-12-05T16:15:41;5.30;99.90
20845;DHT22;10583;49.084;8.646;2022-12-05T16:18:22;5.30;99.90